sensor_id;sensor_type;location;lat;lon;timestamp;P1;durP1;ratioP1;P2;durP2;ratioP2
21272;SDS011;36726;52.328;10.552;2023-02-15T00:02:00;24.63;;;13.68;;
21272;SDS011;36726;52.328;10.552;2023-02-15T00:04:26;27.50;;;13.57;;
21272;SDS011;36726;52.328;10.552;2023-02-15T00:07:13;28.05;;;13.95;;
21272;SDS011;36726;52.328;10.552;2023-02-15T00:09:41;26.67;;;15.02;;
21272;SDS011;36726;52.328;10.552;2023-02-15T00:12:08;26.90;;;14.35;;
21272;SDS011;36726;52.328;10.552;2023-02-15T00:14:35;26.45;;;14.93;;
21272;SDS011;36726;52.328;10.552;2023-02-15T00:17:02;26.67;;;14.23;;
21272;SDS011;36726;52.328;10.552;2023-02-15T00:19:28;28.45;;;13.77;;
21272;SDS011;36726;52.328;10.552;2023-02-15T00:21:55;24.75;;;14.57;;
21272;SDS011;36726;52.328;10.552;2023-02-15T00:24:22;30.92;;;14.88;;
21272;SDS011;36726;52.328;10.552;2023-02-15T00:26:49;27.45;;;14.25;;
21272;SDS011;36726;52.328;10.552;2023-02-15T00:29:16;27.50;;;14.23;;
21272;SDS011;36726;52.328;10.552;2023-02-15T00:31:45;29.33;;;15.23;;
21272;SDS011;36726;52.328;10.552;2023-02-15T00:36:41;29.55;;;14.80;;
21272;SDS011;36726;52.328;10.552;2023-02-15T00:39:09;27.65;;;14.90;;
21272;SDS011;36726;52.328;10.552;2023-02-15T00:41:36;26.65;;;14.13;;
21272;SDS011;36726;52.328;10.552;2023-02-15T00:44:03;28.63;;;15.13;;
21272;SDS011;36726;52.328;10.552;2023-02-15T00:46:31;28.90;;;15.23;;
21272;SDS011;36726;52.328;10.552;2023-02-15T00:48:58;31.05;;;15.32;;
21272;SDS011;36726;52.328;10.552;2023-02-15T00:51:25;26.50;;;14.60;;
21272;SDS011;36726;52.328;10.552;2023-02-15T00:53:52;25.40;;;14.48;;
21272;SDS011;36726;52.328;10.552;2023-02-15T00:56:19;24.40;;;13.80;;
21272;SDS011;36726;52.328;10.552;2023-02-15T00:58:46;25.20;;;13.70;;
21272;SDS011;36726;52.328;10.552;2023-02-15T01:01:14;28.15;;;14.60;;
21272;SDS011;36726;52.328;10.552;2023-02-15T01:03:43;28.83;;;15.63;;
21272;SDS011;36726;52.328;10.552;2023-02-15T01:06:12;31.23;;;14.95;;
21272;SDS011;36726;52.328;10.552;2023-02-15T01:08:41;29.35;;;15.25;;
21272;SDS011;36726;52.328;10.552;2023-02-15T01:11:10;23.65;;;13.50;;
21272;SDS011;36726;52.328;10.552;2023-02-15T01:13:39;28.98;;;14.32;;
21272;SDS011;36726;52.328;10.552;2023-02-15T01:16:06;24.70;;;12.60;;
21272;SDS011;36726;52.328;10.552;2023-02-15T01:18:33;25.80;;;13.73;;
21272;SDS011;36726;52.328;10.552;2023-02-15T01:21:00;27.35;;;13.52;;
21272;SDS011;36726;52.328;10.552;2023-02-15T01:23:35;27.50;;;13.95;;
21272;SDS011;36726;52.328;10.552;2023-02-15T01:26:02;25.85;;;13.60;;
21272;SDS011;36726;52.328;10.552;2023-02-15T01:28:29;24.65;;;12.77;;
21272;SDS011;36726;52.328;10.552;2023-02-15T01:30:56;24.58;;;12.00;;
21272;SDS011;36726;52.328;10.552;2023-02-15T01:33:23;26.40;;;13.05;;
21272;SDS011;36726;52.328;10.552;2023-02-15T01:35:55;26.48;;;13.68;;
21272;SDS011;36726;52.328;10.552;2023-02-15T01:38:23;23.23;;;12.32;;
21272;SDS011;36726;52.328;10.552;2023-02-15T01:40:51;23.02;;;12.65;;
21272;SDS011;36726;52.328;10.552;2023-02-15T01:43:18;23.33;;;12.13;;
21272;SDS011;36726;52.328;10.552;2023-02-15T01:45:46;24.08;;;12.90;;
21272;SDS011;36726;52.328;10.552;2023-02-15T01:48:24;23.30;;;12.10;;
21272;SDS011;36726;52.328;10.552;2023-02-15T01:50:55;22.55;;;12.30;;
21272;SDS011;36726;52.328;10.552;2023-02-15T01:58:26;22.63;;;12.20;;
21272;SDS011;36726;52.328;10.552;2023-02-15T02:00:58;26.92;;;12.82;;
21272;SDS011;36726;52.328;10.552;2023-02-15T02:06:25;25.92;;;12.85;;
21272;SDS011;36726;52.328;10.552;2023-02-15T02:08:53;23.50;;;12.70;;
21272;SDS011;36726;52.328;10.552;2023-02-15T02:11:20;26.73;;;13.55;;
21272;SDS011;36726;52.328;10.552;2023-02-15T02:13:47;28.52;;;14.48;;
21272;SDS011;36726;52.328;10.552;2023-02-15T02:16:20;30.13;;;14.10;;
21272;SDS011;36726;52.328;10.552;2023-02-15T02:27:39;26.83;;;14.68;;
21272;SDS011;36726;52.328;10.552;2023-02-15T02:39:03;28.00;;;13.60;;
21272;SDS011;36726;52.328;10.552;2023-02-15T02:41:58;27.05;;;14.00;;
21272;SDS011;36726;52.328;10.552;2023-02-15T02:44:40;29.52;;;14.07;;
21272;SDS011;36726;52.328;10.552;2023-02-15T02:47:18;24.92;;;13.52;;
21272;SDS011;36726;52.328;10.552;2023-02-15T02:49:58;27.70;;;13.48;;
21272;SDS011;36726;52.328;10.552;2023-02-15T02:52:43;25.40;;;13.60;;
21272;SDS011;36726;52.328;10.552;2023-02-15T02:55:15;28.40;;;14.70;;
21272;SDS011;36726;52.328;10.552;2023-02-15T03:00:38;31.25;;;15.40;;
21272;SDS011;36726;52.328;10.552;2023-02-15T03:03:15;33.85;;;17.15;;
21272;SDS011;36726;52.328;10.552;2023-02-15T03:05:53;29.25;;;15.27;;
21272;SDS011;36726;52.328;10.552;2023-02-15T03:08:23;28.80;;;14.40;;
21272;SDS011;36726;52.328;10.552;2023-02-15T03:10:55;31.23;;;14.70;;
21272;SDS011;36726;52.328;10.552;2023-02-15T03:13:26;31.48;;;14.13;;
21272;SDS011;36726;52.328;10.552;2023-02-15T03:15:53;29.67;;;13.85;;
21272;SDS011;36726;52.328;10.552;2023-02-15T03:18:44;31.73;;;14.38;;
21272;SDS011;36726;52.328;10.552;2023-02-15T03:21:20;42.67;;;15.45;;
21272;SDS011;36726;52.328;10.552;2023-02-15T03:23:54;29.52;;;15.13;;
21272;SDS011;36726;52.328;10.552;2023-02-15T03:26:26;39.20;;;15.57;;
21272;SDS011;36726;52.328;10.552;2023-02-15T03:28:55;37.20;;;14.90;;
21272;SDS011;36726;52.328;10.552;2023-02-15T03:31:26;38.45;;;14.25;;
21272;SDS011;36726;52.328;10.552;2023-02-15T03:34:00;37.13;;;13.40;;
21272;SDS011;36726;52.328;10.552;2023-02-15T03:39:40;40.08;;;12.63;;
21272;SDS011;36726;52.328;10.552;2023-02-15T03:44:49;27.33;;;12.90;;
21272;SDS011;36726;52.328;10.552;2023-02-15T03:47:23;33.92;;;12.85;;
21272;SDS011;36726;52.328;10.552;2023-02-15T03:49:56;25.95;;;12.48;;
21272;SDS011;36726;52.328;10.552;2023-02-15T03:52:30;36.08;;;13.48;;
21272;SDS011;36726;52.328;10.552;2023-02-15T03:54:59;28.05;;;12.73;;
21272;SDS011;36726;52.328;10.552;2023-02-15T03:57:26;22.05;;;11.73;;
21272;SDS011;36726;52.328;10.552;2023-02-15T04:00:14;24.67;;;11.20;;
21272;SDS011;36726;52.328;10.552;2023-02-15T04:05:48;34.15;;;13.35;;
21272;SDS011;36726;52.328;10.552;2023-02-15T04:08:15;38.78;;;12.07;;
21272;SDS011;36726;52.328;10.552;2023-02-15T04:10:41;28.10;;;11.68;;
21272;SDS011;36726;52.328;10.552;2023-02-15T04:13:31;25.15;;;12.45;;
21272;SDS011;36726;52.328;10.552;2023-02-15T04:15:58;27.15;;;11.82;;
21272;SDS011;36726;52.328;10.552;2023-02-15T04:18:38;19.60;;;11.27;;
21272;SDS011;36726;52.328;10.552;2023-02-15T04:21:25;23.80;;;12.13;;
21272;SDS011;36726;52.328;10.552;2023-02-15T04:24:12;22.25;;;11.77;;
21272;SDS011;36726;52.328;10.552;2023-02-15T04:26:58;20.67;;;11.02;;
21272;SDS011;36726;52.328;10.552;2023-02-15T04:29:27;19.45;;;11.55;;
21272;SDS011;36726;52.328;10.552;2023-02-15T04:31:55;21.38;;;10.70;;
21272;SDS011;36726;52.328;10.552;2023-02-15T04:34:23;18.33;;;10.90;;
21272;SDS011;36726;52.328;10.552;2023-02-15T04:36:50;20.10;;;10.82;;
21272;SDS011;36726;52.328;10.552;2023-02-15T04:39:17;21.60;;;11.05;;
21272;SDS011;36726;52.328;10.552;2023-02-15T04:41:45;23.58;;;10.50;;
21272;SDS011;36726;52.328;10.552;2023-02-15T04:44:11;21.05;;;10.50;;
21272;SDS011;36726;52.328;10.552;2023-02-15T04:46:40;23.00;;;10.10;;
21272;SDS011;36726;52.328;10.552;2023-02-15T04:49:07;21.60;;;10.75;;
21272;SDS011;36726;52.328;10.552;2023-02-15T04:51:34;21.05;;;10.35;;
21272;SDS011;36726;52.328;10.552;2023-02-15T04:54:00;21.13;;;10.38;;
21272;SDS011;36726;52.328;10.552;2023-02-15T04:56:27;20.70;;;10.82;;
21272;SDS011;36726;52.328;10.552;2023-02-15T04:58:56;23.08;;;11.43;;
21272;SDS011;36726;52.328;10.552;2023-02-15T05:01:23;17.90;;;10.70;;
21272;SDS011;36726;52.328;10.552;2023-02-15T05:03:49;19.75;;;10.77;;
21272;SDS011;36726;52.328;10.552;2023-02-15T05:06:16;19.02;;;10.90;;
21272;SDS011;36726;52.328;10.552;2023-02-15T05:08:42;21.52;;;10.80;;
21272;SDS011;36726;52.328;10.552;2023-02-15T05:11:09;20.35;;;11.15;;
21272;SDS011;36726;52.328;10.552;2023-02-15T05:13:35;21.42;;;11.45;;
21272;SDS011;36726;52.328;10.552;2023-02-15T05:16:02;22.52;;;11.63;;
21272;SDS011;36726;52.328;10.552;2023-02-15T05:18:29;21.58;;;11.57;;
21272;SDS011;36726;52.328;10.552;2023-02-15T05:20:55;20.15;;;10.88;;
21272;SDS011;36726;52.328;10.552;2023-02-15T05:23:22;24.33;;;10.98;;
21272;SDS011;36726;52.328;10.552;2023-02-15T05:25:50;21.52;;;11.32;;
21272;SDS011;36726;52.328;10.552;2023-02-15T05:28:35;18.05;;;10.80;;
21272;SDS011;36726;52.328;10.552;2023-02-15T05:31:10;20.58;;;11.77;;
21272;SDS011;36726;52.328;10.552;2023-02-15T05:33:41;18.27;;;10.10;;
21272;SDS011;36726;52.328;10.552;2023-02-15T05:36:10;18.77;;;10.75;;
21272;SDS011;36726;52.328;10.552;2023-02-15T05:38:37;21.33;;;11.13;;
21272;SDS011;36726;52.328;10.552;2023-02-15T05:41:08;21.10;;;10.68;;
21272;SDS011;36726;52.328;10.552;2023-02-15T05:43:36;20.67;;;10.68;;
21272;SDS011;36726;52.328;10.552;2023-02-15T05:46:03;19.15;;;10.68;;
21272;SDS011;36726;52.328;10.552;2023-02-15T05:48:31;21.15;;;11.30;;
21272;SDS011;36726;52.328;10.552;2023-02-15T05:50:58;21.05;;;10.52;;
21272;SDS011;36726;52.328;10.552;2023-02-15T05:53:33;20.02;;;11.15;;
21272;SDS011;36726;52.328;10.552;2023-02-15T05:56:05;22.13;;;11.13;;
21272;SDS011;36726;52.328;10.552;2023-02-15T05:58:37;22.70;;;11.05;;
21272;SDS011;36726;52.328;10.552;2023-02-15T06:01:24;22.40;;;10.75;;
21272;SDS011;36726;52.328;10.552;2023-02-15T06:03:50;19.50;;;11.40;;
21272;SDS011;36726;52.328;10.552;2023-02-15T06:06:18;20.85;;;10.82;;
21272;SDS011;36726;52.328;10.552;2023-02-15T06:08:44;20.45;;;10.70;;
21272;SDS011;36726;52.328;10.552;2023-02-15T06:11:12;21.88;;;10.88;;
21272;SDS011;36726;52.328;10.552;2023-02-15T06:13:38;19.63;;;11.23;;
21272;SDS011;36726;52.328;10.552;2023-02-15T06:16:05;22.65;;;11.15;;
21272;SDS011;36726;52.328;10.552;2023-02-15T06:18:33;19.88;;;10.93;;
21272;SDS011;36726;52.328;10.552;2023-02-15T06:21:00;21.13;;;10.57;;
21272;SDS011;36726;52.328;10.552;2023-02-15T06:23:26;20.30;;;11.30;;
21272;SDS011;36726;52.328;10.552;2023-02-15T06:25:53;21.65;;;10.73;;
21272;SDS011;36726;52.328;10.552;2023-02-15T06:28:19;19.38;;;10.90;;
21272;SDS011;36726;52.328;10.552;2023-02-15T06:30:46;20.55;;;10.65;;
21272;SDS011;36726;52.328;10.552;2023-02-15T06:33:13;18.67;;;10.65;;
21272;SDS011;36726;52.328;10.552;2023-02-15T06:35:39;17.70;;;10.23;;
21272;SDS011;36726;52.328;10.552;2023-02-15T06:38:06;19.48;;;10.68;;
21272;SDS011;36726;52.328;10.552;2023-02-15T06:40:32;21.25;;;10.70;;
21272;SDS011;36726;52.328;10.552;2023-02-15T06:42:59;20.13;;;11.05;;
21272;SDS011;36726;52.328;10.552;2023-02-15T06:45:25;20.92;;;11.25;;
21272;SDS011;36726;52.328;10.552;2023-02-15T06:47:52;22.23;;;10.70;;
21272;SDS011;36726;52.328;10.552;2023-02-15T06:50:18;20.55;;;10.68;;
21272;SDS011;36726;52.328;10.552;2023-02-15T06:52:45;21.80;;;10.70;;
21272;SDS011;36726;52.328;10.552;2023-02-15T06:55:12;21.02;;;11.05;;
21272;SDS011;36726;52.328;10.552;2023-02-15T06:57:38;21.05;;;11.02;;
21272;SDS011;36726;52.328;10.552;2023-02-15T07:00:05;24.30;;;11.32;;
21272;SDS011;36726;52.328;10.552;2023-02-15T07:02:32;19.55;;;10.90;;
21272;SDS011;36726;52.328;10.552;2023-02-15T07:04:59;17.90;;;10.18;;
21272;SDS011;36726;52.328;10.552;2023-02-15T07:07:26;20.58;;;10.15;;
21272;SDS011;36726;52.328;10.552;2023-02-15T07:09:52;22.40;;;10.23;;
21272;SDS011;36726;52.328;10.552;2023-02-15T07:12:19;21.67;;;10.57;;
21272;SDS011;36726;52.328;10.552;2023-02-15T07:15:04;18.13;;;9.88;;
21272;SDS011;36726;52.328;10.552;2023-02-15T07:17:33;17.17;;;9.57;;
21272;SDS011;36726;52.328;10.552;2023-02-15T07:20:03;17.30;;;9.98;;
21272;SDS011;36726;52.328;10.552;2023-02-15T07:22:31;20.80;;;10.70;;
21272;SDS011;36726;52.328;10.552;2023-02-15T07:25:00;20.50;;;10.40;;
21272;SDS011;36726;52.328;10.552;2023-02-15T07:27:26;18.25;;;10.32;;
21272;SDS011;36726;52.328;10.552;2023-02-15T07:29:55;19.40;;;10.48;;
21272;SDS011;36726;52.328;10.552;2023-02-15T07:32:22;20.55;;;10.32;;
21272;SDS011;36726;52.328;10.552;2023-02-15T07:34:48;19.27;;;10.05;;
21272;SDS011;36726;52.328;10.552;2023-02-15T07:37:15;20.02;;;10.43;;
21272;SDS011;36726;52.328;10.552;2023-02-15T07:39:41;20.60;;;11.02;;
21272;SDS011;36726;52.328;10.552;2023-02-15T07:42:08;18.67;;;10.48;;
21272;SDS011;36726;52.328;10.552;2023-02-15T07:44:35;21.13;;;11.05;;
21272;SDS011;36726;52.328;10.552;2023-02-15T07:47:01;24.65;;;11.30;;
21272;SDS011;36726;52.328;10.552;2023-02-15T07:49:28;19.10;;;11.73;;
21272;SDS011;36726;52.328;10.552;2023-02-15T07:51:55;21.50;;;11.35;;
21272;SDS011;36726;52.328;10.552;2023-02-15T07:54:21;21.33;;;11.20;;
21272;SDS011;36726;52.328;10.552;2023-02-15T07:56:47;26.42;;;12.25;;
21272;SDS011;36726;52.328;10.552;2023-02-15T07:59:15;21.23;;;10.85;;
21272;SDS011;36726;52.328;10.552;2023-02-15T08:01:42;22.58;;;12.25;;
21272;SDS011;36726;52.328;10.552;2023-02-15T08:04:08;23.05;;;12.05;;
21272;SDS011;36726;52.328;10.552;2023-02-15T08:06:37;22.27;;;11.23;;
21272;SDS011;36726;52.328;10.552;2023-02-15T08:09:05;21.52;;;11.32;;
21272;SDS011;36726;52.328;10.552;2023-02-15T08:11:33;20.30;;;10.88;;
21272;SDS011;36726;52.328;10.552;2023-02-15T08:14:08;24.05;;;11.73;;
21272;SDS011;36726;52.328;10.552;2023-02-15T08:16:54;20.10;;;10.82;;
21272;SDS011;36726;52.328;10.552;2023-02-15T08:19:26;20.55;;;11.50;;
21272;SDS011;36726;52.328;10.552;2023-02-15T08:21:55;22.67;;;11.60;;
21272;SDS011;36726;52.328;10.552;2023-02-15T08:24:24;19.98;;;10.95;;
21272;SDS011;36726;52.328;10.552;2023-02-15T08:26:55;21.42;;;11.63;;
21272;SDS011;36726;52.328;10.552;2023-02-15T08:29:24;18.92;;;10.73;;
21272;SDS011;36726;52.328;10.552;2023-02-15T08:31:53;20.50;;;10.68;;
21272;SDS011;36726;52.328;10.552;2023-02-15T08:34:21;22.85;;;11.57;;
21272;SDS011;36726;52.328;10.552;2023-02-15T08:36:48;21.73;;;11.73;;
21272;SDS011;36726;52.328;10.552;2023-02-15T08:39:15;22.08;;;11.38;;
21272;SDS011;36726;52.328;10.552;2023-02-15T08:41:42;21.48;;;11.50;;
21272;SDS011;36726;52.328;10.552;2023-02-15T08:44:10;18.00;;;10.88;;
21272;SDS011;36726;52.328;10.552;2023-02-15T08:46:39;21.33;;;12.27;;
21272;SDS011;36726;52.328;10.552;2023-02-15T08:49:08;20.52;;;11.68;;
21272;SDS011;36726;52.328;10.552;2023-02-15T08:51:37;19.60;;;11.75;;
21272;SDS011;36726;52.328;10.552;2023-02-15T08:54:09;21.20;;;11.70;;
21272;SDS011;36726;52.328;10.552;2023-02-15T08:56:38;22.60;;;13.43;;
21272;SDS011;36726;52.328;10.552;2023-02-15T08:59:10;25.10;;;13.27;;
21272;SDS011;36726;52.328;10.552;2023-02-15T09:01:39;22.95;;;12.15;;
21272;SDS011;36726;52.328;10.552;2023-02-15T09:04:06;21.63;;;13.13;;
21272;SDS011;36726;52.328;10.552;2023-02-15T09:06:35;22.52;;;12.65;;
21272;SDS011;36726;52.328;10.552;2023-02-15T09:09:03;21.17;;;12.90;;
21272;SDS011;36726;52.328;10.552;2023-02-15T09:11:33;24.77;;;13.57;;
21272;SDS011;36726;52.328;10.552;2023-02-15T09:14:05;23.58;;;12.88;;
21272;SDS011;36726;52.328;10.552;2023-02-15T09:16:37;21.88;;;13.13;;
21272;SDS011;36726;52.328;10.552;2023-02-15T09:19:04;21.70;;;13.05;;
21272;SDS011;36726;52.328;10.552;2023-02-15T09:21:32;22.88;;;13.45;;
21272;SDS011;36726;52.328;10.552;2023-02-15T09:24:03;23.55;;;13.15;;
21272;SDS011;36726;52.328;10.552;2023-02-15T09:26:33;23.67;;;12.27;;
21272;SDS011;36726;52.328;10.552;2023-02-15T09:29:02;22.08;;;12.35;;
21272;SDS011;36726;52.328;10.552;2023-02-15T09:31:30;23.00;;;11.52;;
21272;SDS011;36726;52.328;10.552;2023-02-15T09:34:00;15.68;;;9.93;;
21272;SDS011;36726;52.328;10.552;2023-02-15T09:36:29;18.23;;;9.93;;
21272;SDS011;36726;52.328;10.552;2023-02-15T09:39:04;15.40;;;8.70;;
21272;SDS011;36726;52.328;10.552;2023-02-15T09:41:36;15.30;;;8.73;;
21272;SDS011;36726;52.328;10.552;2023-02-15T09:44:11;16.63;;;9.10;;
21272;SDS011;36726;52.328;10.552;2023-02-15T09:52:22;14.35;;;8.55;;
21272;SDS011;36726;52.328;10.552;2023-02-15T10:06:19;11.00;;;6.85;;
21272;SDS011;36726;52.328;10.552;2023-02-15T10:20:08;11.45;;;6.40;;
21272;SDS011;36726;52.328;10.552;2023-02-15T10:26:01;10.02;;;6.03;;
21272;SDS011;36726;52.328;10.552;2023-02-15T10:28:42;13.85;;;6.55;;
21272;SDS011;36726;52.328;10.552;2023-02-15T10:31:22;8.52;;;5.88;;
21272;SDS011;36726;52.328;10.552;2023-02-15T10:37:22;8.50;;;5.63;;
21272;SDS011;36726;52.328;10.552;2023-02-15T10:47:58;8.55;;;4.65;;
21272;SDS011;36726;52.328;10.552;2023-02-15T10:59:06;9.88;;;4.97;;
21272;SDS011;36726;52.328;10.552;2023-02-15T11:02:10;5.80;;;4.22;;
21272;SDS011;36726;52.328;10.552;2023-02-15T11:07:46;7.57;;;4.68;;
21272;SDS011;36726;52.328;10.552;2023-02-15T11:12:50;6.43;;;3.92;;
21272;SDS011;36726;52.328;10.552;2023-02-15T11:15:25;8.90;;;5.18;;
21272;SDS011;36726;52.328;10.552;2023-02-15T11:17:59;8.55;;;4.28;;
21272;SDS011;36726;52.328;10.552;2023-02-15T11:23:08;9.02;;;4.45;;
21272;SDS011;36726;52.328;10.552;2023-02-15T11:25:45;6.28;;;3.97;;
21272;SDS011;36726;52.328;10.552;2023-02-15T11:28:29;8.32;;;4.25;;
21272;SDS011;36726;52.328;10.552;2023-02-15T11:31:11;6.88;;;3.97;;
21272;SDS011;36726;52.328;10.552;2023-02-15T11:33:43;5.40;;;4.00;;
21272;SDS011;36726;52.328;10.552;2023-02-15T11:36:18;6.30;;;4.13;;
21272;SDS011;36726;52.328;10.552;2023-02-15T11:38:49;8.43;;;4.20;;
21272;SDS011;36726;52.328;10.552;2023-02-15T11:41:24;7.28;;;3.90;;
21272;SDS011;36726;52.328;10.552;2023-02-15T11:43:58;7.28;;;3.90;;
21272;SDS011;36726;52.328;10.552;2023-02-15T11:46:31;7.57;;;4.20;;
21272;SDS011;36726;52.328;10.552;2023-02-15T11:48:58;7.88;;;4.28;;
21272;SDS011;36726;52.328;10.552;2023-02-15T11:51:24;5.80;;;3.72;;
21272;SDS011;36726;52.328;10.552;2023-02-15T11:53:55;6.22;;;3.83;;
21272;SDS011;36726;52.328;10.552;2023-02-15T11:56:22;7.20;;;4.40;;
21272;SDS011;36726;52.328;10.552;2023-02-15T11:58:55;7.28;;;3.97;;
21272;SDS011;36726;52.328;10.552;2023-02-15T12:01:31;7.05;;;4.35;;
21272;SDS011;36726;52.328;10.552;2023-02-15T12:09:32;8.05;;;4.65;;
21272;SDS011;36726;52.328;10.552;2023-02-15T12:12:20;7.65;;;4.72;;
21272;SDS011;36726;52.328;10.552;2023-02-15T12:14:55;6.50;;;4.30;;
21272;SDS011;36726;52.328;10.552;2023-02-15T12:17:24;8.88;;;4.80;;
21272;SDS011;36726;52.328;10.552;2023-02-15T12:19:55;8.15;;;4.22;;
21272;SDS011;36726;52.328;10.552;2023-02-15T12:24:53;7.50;;;4.60;;
21272;SDS011;36726;52.328;10.552;2023-02-15T12:27:32;8.73;;;5.00;;
21272;SDS011;36726;52.328;10.552;2023-02-15T12:30:04;13.68;;;4.55;;
21272;SDS011;36726;52.328;10.552;2023-02-15T12:32:47;7.53;;;4.20;;
21272;SDS011;36726;52.328;10.552;2023-02-15T12:35:35;8.73;;;5.07;;
21272;SDS011;36726;52.328;10.552;2023-02-15T12:40:36;8.38;;;4.80;;
21272;SDS011;36726;52.328;10.552;2023-02-15T12:43:24;6.60;;;4.30;;
21272;SDS011;36726;52.328;10.552;2023-02-15T12:45:52;8.00;;;4.43;;
21272;SDS011;36726;52.328;10.552;2023-02-15T12:48:19;9.48;;;4.50;;
21272;SDS011;36726;52.328;10.552;2023-02-15T12:50:50;9.40;;;4.93;;
21272;SDS011;36726;52.328;10.552;2023-02-15T12:53:21;8.35;;;4.50;;
21272;SDS011;36726;52.328;10.552;2023-02-15T12:55:56;6.03;;;4.07;;
21272;SDS011;36726;52.328;10.552;2023-02-15T12:58:31;7.65;;;4.60;;
21272;SDS011;36726;52.328;10.552;2023-02-15T13:01:03;6.88;;;4.07;;
21272;SDS011;36726;52.328;10.552;2023-02-15T13:03:52;8.32;;;4.28;;
21272;SDS011;36726;52.328;10.552;2023-02-15T13:06:23;7.07;;;4.95;;
21272;SDS011;36726;52.328;10.552;2023-02-15T13:08:50;7.55;;;4.68;;
21272;SDS011;36726;52.328;10.552;2023-02-15T13:11:20;7.50;;;4.90;;
21272;SDS011;36726;52.328;10.552;2023-02-15T13:14:01;9.27;;;4.70;;
21272;SDS011;36726;52.328;10.552;2023-02-15T13:16:33;10.32;;;5.57;;
21272;SDS011;36726;52.328;10.552;2023-02-15T13:19:10;6.93;;;4.95;;
21272;SDS011;36726;52.328;10.552;2023-02-15T13:21:42;7.70;;;4.97;;
21272;SDS011;36726;52.328;10.552;2023-02-15T13:26:45;14.13;;;5.70;;
21272;SDS011;36726;52.328;10.552;2023-02-15T13:29:24;8.88;;;6.03;;
21272;SDS011;36726;52.328;10.552;2023-02-15T13:31:54;8.65;;;5.40;;
21272;SDS011;36726;52.328;10.552;2023-02-15T13:34:28;12.98;;;7.45;;
21272;SDS011;36726;52.328;10.552;2023-02-15T13:37:01;15.65;;;7.90;;
21272;SDS011;36726;52.328;10.552;2023-02-15T13:42:41;9.55;;;6.00;;
21272;SDS011;36726;52.328;10.552;2023-02-15T13:51:27;8.90;;;5.85;;
21272;SDS011;36726;52.328;10.552;2023-02-15T13:56:53;16.10;;;6.28;;
21272;SDS011;36726;52.328;10.552;2023-02-15T14:11:36;10.23;;;6.40;;
21272;SDS011;36726;52.328;10.552;2023-02-15T14:20:15;10.50;;;5.97;;
21272;SDS011;36726;52.328;10.552;2023-02-15T14:25:40;10.80;;;6.15;;
21272;SDS011;36726;52.328;10.552;2023-02-15T14:28:15;12.52;;;7.07;;
21272;SDS011;36726;52.328;10.552;2023-02-15T14:30:49;11.60;;;6.22;;
21272;SDS011;36726;52.328;10.552;2023-02-15T14:33:33;12.48;;;6.57;;
21272;SDS011;36726;52.328;10.552;2023-02-15T14:36:05;11.40;;;7.10;;
21272;SDS011;36726;52.328;10.552;2023-02-15T14:41:56;10.93;;;6.53;;
21272;SDS011;36726;52.328;10.552;2023-02-15T14:44:33;13.18;;;6.75;;
21272;SDS011;36726;52.328;10.552;2023-02-15T14:49:39;10.55;;;6.65;;
21272;SDS011;36726;52.328;10.552;2023-02-15T14:52:06;11.23;;;6.80;;
21272;SDS011;36726;52.328;10.552;2023-02-15T14:59:37;11.95;;;6.93;;
21272;SDS011;36726;52.328;10.552;2023-02-15T15:04:34;9.95;;;6.90;;
21272;SDS011;36726;52.328;10.552;2023-02-15T15:07:09;13.35;;;6.90;;
21272;SDS011;36726;52.328;10.552;2023-02-15T15:09:46;11.98;;;6.85;;
21272;SDS011;36726;52.328;10.552;2023-02-15T15:14:50;12.75;;;7.13;;
21272;SDS011;36726;52.328;10.552;2023-02-15T15:18:02;12.00;;;7.15;;
21272;SDS011;36726;52.328;10.552;2023-02-15T15:23:09;11.55;;;7.40;;
21272;SDS011;36726;52.328;10.552;2023-02-15T15:25:44;12.57;;;7.47;;
21272;SDS011;36726;52.328;10.552;2023-02-15T15:31:02;11.80;;;7.28;;
21272;SDS011;36726;52.328;10.552;2023-02-15T15:33:40;11.82;;;7.50;;
21272;SDS011;36726;52.328;10.552;2023-02-15T15:36:35;11.65;;;7.35;;
21272;SDS011;36726;52.328;10.552;2023-02-15T15:39:21;11.32;;;7.03;;
21272;SDS011;36726;52.328;10.552;2023-02-15T15:48:19;11.27;;;6.65;;
21272;SDS011;36726;52.328;10.552;2023-02-15T15:50:56;13.70;;;7.00;;
21272;SDS011;36726;52.328;10.552;2023-02-15T15:53:26;11.05;;;6.70;;
21272;SDS011;36726;52.328;10.552;2023-02-15T15:55:57;14.07;;;7.00;;
21272;SDS011;36726;52.328;10.552;2023-02-15T15:58:29;12.75;;;6.70;;
21272;SDS011;36726;52.328;10.552;2023-02-15T16:01:07;12.02;;;6.82;;
21272;SDS011;36726;52.328;10.552;2023-02-15T16:03:36;11.05;;;6.90;;
21272;SDS011;36726;52.328;10.552;2023-02-15T16:06:02;11.50;;;7.30;;
21272;SDS011;36726;52.328;10.552;2023-02-15T16:08:37;13.07;;;7.35;;
21272;SDS011;36726;52.328;10.552;2023-02-15T16:11:16;12.05;;;7.45;;
21272;SDS011;36726;52.328;10.552;2023-02-15T16:13:45;13.65;;;7.38;;
21272;SDS011;36726;52.328;10.552;2023-02-15T16:16:13;15.77;;;7.57;;
21272;SDS011;36726;52.328;10.552;2023-02-15T16:18:47;16.63;;;8.90;;
21272;SDS011;36726;52.328;10.552;2023-02-15T16:21:20;13.60;;;8.10;;
21272;SDS011;36726;52.328;10.552;2023-02-15T16:27:41;13.45;;;7.47;;
21272;SDS011;36726;52.328;10.552;2023-02-15T16:29:39;13.30;;;7.40;;
21272;SDS011;36726;52.328;10.552;2023-02-15T16:32:16;16.00;;;8.05;;
21272;SDS011;36726;52.328;10.552;2023-02-15T16:34:52;14.05;;;7.40;;
21272;SDS011;36726;52.328;10.552;2023-02-15T16:37:27;15.52;;;7.68;;
21272;SDS011;36726;52.328;10.552;2023-02-15T16:39:58;13.30;;;7.55;;
21272;SDS011;36726;52.328;10.552;2023-02-15T16:42:25;14.95;;;7.20;;
21272;SDS011;36726;52.328;10.552;2023-02-15T16:44:56;11.40;;;7.40;;
21272;SDS011;36726;52.328;10.552;2023-02-15T16:47:28;13.57;;;7.95;;
21272;SDS011;36726;52.328;10.552;2023-02-15T16:49:58;13.05;;;7.50;;
21272;SDS011;36726;52.328;10.552;2023-02-15T16:52:27;15.38;;;7.28;;
21272;SDS011;36726;52.328;10.552;2023-02-15T16:54:55;13.60;;;7.88;;
21272;SDS011;36726;52.328;10.552;2023-02-15T16:57:25;14.73;;;8.10;;
21272;SDS011;36726;52.328;10.552;2023-02-15T17:00:04;13.00;;;7.55;;
21272;SDS011;36726;52.328;10.552;2023-02-15T17:02:34;13.55;;;7.63;;
21272;SDS011;36726;52.328;10.552;2023-02-15T17:05:21;18.42;;;9.32;;
21272;SDS011;36726;52.328;10.552;2023-02-15T17:08:04;17.02;;;8.73;;
21272;SDS011;36726;52.328;10.552;2023-02-15T17:11:33;13.75;;;8.23;;
21272;SDS011;36726;52.328;10.552;2023-02-15T17:13:38;16.35;;;8.40;;
21272;SDS011;36726;52.328;10.552;2023-02-15T17:16:23;14.75;;;7.53;;
21272;SDS011;36726;52.328;10.552;2023-02-15T17:18:56;15.90;;;8.48;;
21272;SDS011;36726;52.328;10.552;2023-02-15T17:21:26;15.48;;;7.57;;
21272;SDS011;36726;52.328;10.552;2023-02-15T17:23:59;12.75;;;7.90;;
21272;SDS011;36726;52.328;10.552;2023-02-15T17:26:31;14.43;;;8.07;;
21272;SDS011;36726;52.328;10.552;2023-02-15T17:29:01;15.38;;;9.15;;
21272;SDS011;36726;52.328;10.552;2023-02-15T17:31:38;16.42;;;9.60;;
21272;SDS011;36726;52.328;10.552;2023-02-15T17:34:05;15.35;;;9.02;;
21272;SDS011;36726;52.328;10.552;2023-02-15T17:36:32;20.15;;;8.90;;
21272;SDS011;36726;52.328;10.552;2023-02-15T17:41:48;18.73;;;10.27;;